sensor_id;sensor_type;location;lat;lon;timestamp;P1;durP1;ratioP1;P2;durP2;ratioP2
28627;SDS011;15815;46.760;19.604;2023-02-01T00:01:05;15.18;;;3.70;;
28627;SDS011;15815;46.760;19.604;2023-02-01T00:03:32;17.02;;;5.40;;
28627;SDS011;15815;46.760;19.604;2023-02-01T00:05:59;21.05;;;9.77;;
28627;SDS011;15815;46.760;19.604;2023-02-01T00:08:25;23.30;;;10.75;;
28627;SDS011;15815;46.760;19.604;2023-02-01T00:11:05;20.80;;;6.22;;
28627;SDS011;15815;46.760;19.604;2023-02-01T00:13:33;14.17;;;4.33;;
28627;SDS011;15815;46.760;19.604;2023-02-01T00:16:12;14.80;;;5.22;;
28627;SDS011;15815;46.760;19.604;2023-02-01T00:18:40;13.75;;;4.35;;
28627;SDS011;15815;46.760;19.604;2023-02-01T00:21:05;12.93;;;5.85;;
28627;SDS011;15815;46.760;19.604;2023-02-01T00:23:32;14.10;;;5.57;;
28627;SDS011;15815;46.760;19.604;2023-02-01T00:26:00;12.77;;;4.10;;
28627;SDS011;15815;46.760;19.604;2023-02-01T00:30:56;15.50;;;4.38;;
28627;SDS011;15815;46.760;19.604;2023-02-01T00:33:22;14.48;;;4.38;;
28627;SDS011;15815;46.760;19.604;2023-02-01T00:35:48;13.20;;;4.70;;
28627;SDS011;15815;46.760;19.604;2023-02-01T00:38:14;8.63;;;3.75;;
28627;SDS011;15815;46.760;19.604;2023-02-01T00:40:39;12.95;;;5.05;;
28627;SDS011;15815;46.760;19.604;2023-02-01T00:43:05;10.55;;;4.38;;
28627;SDS011;15815;46.760;19.604;2023-02-01T00:45:31;17.65;;;4.80;;
28627;SDS011;15815;46.760;19.604;2023-02-01T00:47:57;12.88;;;4.10;;
28627;SDS011;15815;46.760;19.604;2023-02-01T00:50:22;14.20;;;4.38;;
28627;SDS011;15815;46.760;19.604;2023-02-01T00:52:48;13.05;;;4.90;;
28627;SDS011;15815;46.760;19.604;2023-02-01T00:55:13;13.60;;;5.28;;
28627;SDS011;15815;46.760;19.604;2023-02-01T00:57:41;11.15;;;5.28;;
28627;SDS011;15815;46.760;19.604;2023-02-01T01:00:06;12.23;;;5.38;;
28627;SDS011;15815;46.760;19.604;2023-02-01T01:02:33;11.60;;;4.82;;
28627;SDS011;15815;46.760;19.604;2023-02-01T01:05:00;12.43;;;5.88;;
28627;SDS011;15815;46.760;19.604;2023-02-01T01:07:25;9.40;;;4.75;;
28627;SDS011;15815;46.760;19.604;2023-02-01T01:09:53;10.10;;;5.07;;
28627;SDS011;15815;46.760;19.604;2023-02-01T01:12:18;8.95;;;4.95;;
28627;SDS011;15815;46.760;19.604;2023-02-01T01:14:44;8.52;;;4.00;;
28627;SDS011;15815;46.760;19.604;2023-02-01T01:17:09;13.20;;;4.72;;
28627;SDS011;15815;46.760;19.604;2023-02-01T01:19:35;4.85;;;3.30;;
28627;SDS011;15815;46.760;19.604;2023-02-01T01:22:00;7.78;;;3.85;;
28627;SDS011;15815;46.760;19.604;2023-02-01T01:24:26;8.95;;;3.33;;
28627;SDS011;15815;46.760;19.604;2023-02-01T01:26:51;9.75;;;4.30;;
28627;SDS011;15815;46.760;19.604;2023-02-01T01:29:17;8.95;;;3.28;;
28627;SDS011;15815;46.760;19.604;2023-02-01T01:31:42;6.43;;;3.33;;
28627;SDS011;15815;46.760;19.604;2023-02-01T01:34:08;9.98;;;3.58;;
28627;SDS011;15815;46.760;19.604;2023-02-01T01:36:34;7.90;;;3.35;;
28627;SDS011;15815;46.760;19.604;2023-02-01T01:38:59;8.32;;;3.30;;
28627;SDS011;15815;46.760;19.604;2023-02-01T01:41:28;9.23;;;3.47;;
28627;SDS011;15815;46.760;19.604;2023-02-01T01:46:25;8.75;;;3.30;;
28627;SDS011;15815;46.760;19.604;2023-02-01T01:51:53;11.25;;;3.65;;
28627;SDS011;15815;46.760;19.604;2023-02-01T01:54:25;8.93;;;3.72;;
28627;SDS011;15815;46.760;19.604;2023-02-01T01:56:55;9.25;;;3.55;;
28627;SDS011;15815;46.760;19.604;2023-02-01T01:59:24;10.90;;;3.95;;
28627;SDS011;15815;46.760;19.604;2023-02-01T02:01:50;11.25;;;3.80;;
28627;SDS011;15815;46.760;19.604;2023-02-01T02:04:17;9.15;;;4.43;;
28627;SDS011;15815;46.760;19.604;2023-02-01T02:07:26;9.30;;;3.80;;
28627;SDS011;15815;46.760;19.604;2023-02-01T02:09:37;10.73;;;3.38;;
28627;SDS011;15815;46.760;19.604;2023-02-01T02:12:05;15.68;;;4.63;;
28627;SDS011;15815;46.760;19.604;2023-02-01T02:14:31;8.30;;;4.00;;
28627;SDS011;15815;46.760;19.604;2023-02-01T02:33:42;10.73;;;3.80;;
28627;SDS011;15815;46.760;19.604;2023-02-01T02:39:02;10.20;;;4.22;;
28627;SDS011;15815;46.760;19.604;2023-02-01T02:52:56;8.52;;;3.90;;
28627;SDS011;15815;46.760;19.604;2023-02-01T02:55:27;9.60;;;4.45;;
28627;SDS011;15815;46.760;19.604;2023-02-01T02:57:54;10.63;;;4.05;;
28627;SDS011;15815;46.760;19.604;2023-02-01T03:00:24;10.15;;;3.92;;
28627;SDS011;15815;46.760;19.604;2023-02-01T03:05:21;7.32;;;3.95;;
28627;SDS011;15815;46.760;19.604;2023-02-01T03:08:01;13.60;;;4.95;;
28627;SDS011;15815;46.760;19.604;2023-02-01T03:13:11;16.80;;;8.25;;
28627;SDS011;15815;46.760;19.604;2023-02-01T03:15:54;11.90;;;6.68;;
28627;SDS011;15815;46.760;19.604;2023-02-01T03:18:31;11.40;;;4.45;;
28627;SDS011;15815;46.760;19.604;2023-02-01T03:21:04;7.00;;;3.85;;
28627;SDS011;15815;46.760;19.604;2023-02-01T03:23:34;11.00;;;4.70;;
28627;SDS011;15815;46.760;19.604;2023-02-01T03:26:06;11.27;;;4.43;;
28627;SDS011;15815;46.760;19.604;2023-02-01T03:28:36;6.63;;;3.20;;
28627;SDS011;15815;46.760;19.604;2023-02-01T03:31:07;7.45;;;3.58;;
28627;SDS011;15815;46.760;19.604;2023-02-01T03:33:33;10.57;;;4.05;;
28627;SDS011;15815;46.760;19.604;2023-02-01T03:39:12;7.82;;;4.35;;
28627;SDS011;15815;46.760;19.604;2023-02-01T03:41:56;8.13;;;3.90;;
28627;SDS011;15815;46.760;19.604;2023-02-01T03:44:26;5.30;;;3.63;;
28627;SDS011;15815;46.760;19.604;2023-02-01T03:46:59;10.40;;;4.18;;
28627;SDS011;15815;46.760;19.604;2023-02-01T03:49:38;8.32;;;3.88;;
28627;SDS011;15815;46.760;19.604;2023-02-01T03:52:09;10.63;;;4.55;;
28627;SDS011;15815;46.760;19.604;2023-02-01T03:54:41;7.55;;;3.88;;
28627;SDS011;15815;46.760;19.604;2023-02-01T03:57:09;9.95;;;4.07;;
28627;SDS011;15815;46.760;19.604;2023-02-01T03:59:39;9.02;;;4.50;;
28627;SDS011;15815;46.760;19.604;2023-02-01T04:02:06;7.97;;;4.45;;
28627;SDS011;15815;46.760;19.604;2023-02-01T04:04:32;8.95;;;4.38;;
28627;SDS011;15815;46.760;19.604;2023-02-01T04:06:59;6.78;;;3.47;;
28627;SDS011;15815;46.760;19.604;2023-02-01T04:09:24;5.97;;;3.90;;
28627;SDS011;15815;46.760;19.604;2023-02-01T04:11:50;9.88;;;4.60;;
28627;SDS011;15815;46.760;19.604;2023-02-01T04:14:15;7.70;;;4.13;;
28627;SDS011;15815;46.760;19.604;2023-02-01T04:16:41;9.35;;;4.32;;
28627;SDS011;15815;46.760;19.604;2023-02-01T04:19:06;10.82;;;4.80;;
28627;SDS011;15815;46.760;19.604;2023-02-01T04:21:32;9.80;;;4.10;;
28627;SDS011;15815;46.760;19.604;2023-02-01T04:23:57;7.13;;;4.53;;
28627;SDS011;15815;46.760;19.604;2023-02-01T04:26:23;12.40;;;4.90;;
28627;SDS011;15815;46.760;19.604;2023-02-01T04:28:49;10.95;;;4.60;;
28627;SDS011;15815;46.760;19.604;2023-02-01T04:31:15;7.25;;;4.05;;
28627;SDS011;15815;46.760;19.604;2023-02-01T04:33:42;8.43;;;3.80;;
28627;SDS011;15815;46.760;19.604;2023-02-01T04:36:08;8.13;;;3.83;;
28627;SDS011;15815;46.760;19.604;2023-02-01T04:38:34;12.07;;;4.63;;
28627;SDS011;15815;46.760;19.604;2023-02-01T04:40:59;6.68;;;3.95;;
28627;SDS011;15815;46.760;19.604;2023-02-01T04:43:25;9.18;;;5.22;;
28627;SDS011;15815;46.760;19.604;2023-02-01T04:45:51;9.95;;;4.25;;
28627;SDS011;15815;46.760;19.604;2023-02-01T04:48:17;9.63;;;4.60;;
28627;SDS011;15815;46.760;19.604;2023-02-01T04:50:44;8.63;;;4.00;;
28627;SDS011;15815;46.760;19.604;2023-02-01T04:53:12;11.00;;;4.40;;
28627;SDS011;15815;46.760;19.604;2023-02-01T04:55:40;10.75;;;4.45;;
28627;SDS011;15815;46.760;19.604;2023-02-01T04:58:10;14.50;;;5.47;;
28627;SDS011;15815;46.760;19.604;2023-02-01T05:00:36;11.00;;;5.18;;
28627;SDS011;15815;46.760;19.604;2023-02-01T05:03:02;11.15;;;6.22;;
28627;SDS011;15815;46.760;19.604;2023-02-01T05:05:28;19.08;;;7.60;;
28627;SDS011;15815;46.760;19.604;2023-02-01T05:07:54;18.50;;;7.60;;
28627;SDS011;15815;46.760;19.604;2023-02-01T05:10:20;19.80;;;8.60;;
28627;SDS011;15815;46.760;19.604;2023-02-01T05:12:46;11.30;;;5.65;;
28627;SDS011;15815;46.760;19.604;2023-02-01T05:15:11;8.95;;;5.28;;
28627;SDS011;15815;46.760;19.604;2023-02-01T05:17:37;14.30;;;6.05;;
28627;SDS011;15815;46.760;19.604;2023-02-01T05:20:02;27.27;;;12.00;;
28627;SDS011;15815;46.760;19.604;2023-02-01T05:22:29;20.60;;;9.50;;
28627;SDS011;15815;46.760;19.604;2023-02-01T05:24:55;14.77;;;8.75;;
28627;SDS011;15815;46.760;19.604;2023-02-01T05:27:23;11.35;;;7.20;;
28627;SDS011;15815;46.760;19.604;2023-02-01T05:29:49;11.52;;;7.40;;
28627;SDS011;15815;46.760;19.604;2023-02-01T05:32:15;10.20;;;6.38;;
28627;SDS011;15815;46.760;19.604;2023-02-01T05:34:40;10.30;;;5.60;;
28627;SDS011;15815;46.760;19.604;2023-02-01T05:37:06;17.10;;;11.18;;
28627;SDS011;15815;46.760;19.604;2023-02-01T05:39:31;31.15;;;16.40;;
28627;SDS011;15815;46.760;19.604;2023-02-01T05:41:57;17.20;;;9.05;;
28627;SDS011;15815;46.760;19.604;2023-02-01T05:44:22;16.40;;;8.73;;
28627;SDS011;15815;46.760;19.604;2023-02-01T05:46:48;13.73;;;9.93;;
28627;SDS011;15815;46.760;19.604;2023-02-01T05:49:13;21.30;;;15.98;;
28627;SDS011;15815;46.760;19.604;2023-02-01T05:51:40;13.45;;;6.70;;
28627;SDS011;15815;46.760;19.604;2023-02-01T05:54:06;12.95;;;7.68;;
28627;SDS011;15815;46.760;19.604;2023-02-01T05:56:31;42.60;;;14.13;;
28627;SDS011;15815;46.760;19.604;2023-02-01T05:58:57;45.17;;;17.60;;
28627;SDS011;15815;46.760;19.604;2023-02-01T06:01:22;22.70;;;11.13;;
28627;SDS011;15815;46.760;19.604;2023-02-01T06:03:48;16.30;;;8.02;;
28627;SDS011;15815;46.760;19.604;2023-02-01T06:06:13;12.95;;;6.95;;
28627;SDS011;15815;46.760;19.604;2023-02-01T06:08:39;23.70;;;13.60;;
28627;SDS011;15815;46.760;19.604;2023-02-01T06:11:04;18.77;;;10.48;;
28627;SDS011;15815;46.760;19.604;2023-02-01T06:13:30;24.60;;;13.73;;
28627;SDS011;15815;46.760;19.604;2023-02-01T06:15:58;26.33;;;14.38;;
28627;SDS011;15815;46.760;19.604;2023-02-01T06:18:24;27.27;;;14.18;;
28627;SDS011;15815;46.760;19.604;2023-02-01T06:20:54;26.17;;;14.10;;
28627;SDS011;15815;46.760;19.604;2023-02-01T06:23:20;18.75;;;10.45;;
28627;SDS011;15815;46.760;19.604;2023-02-01T06:25:46;46.13;;;20.58;;
28627;SDS011;15815;46.760;19.604;2023-02-01T06:28:11;32.53;;;17.17;;
28627;SDS011;15815;46.760;19.604;2023-02-01T06:30:37;26.60;;;17.25;;
28627;SDS011;15815;46.760;19.604;2023-02-01T06:33:02;18.55;;;10.35;;
28627;SDS011;15815;46.760;19.604;2023-02-01T06:35:28;19.70;;;10.80;;
28627;SDS011;15815;46.760;19.604;2023-02-01T06:37:53;19.63;;;9.68;;
28627;SDS011;15815;46.760;19.604;2023-02-01T06:40:19;17.45;;;10.00;;
28627;SDS011;15815;46.760;19.604;2023-02-01T06:42:44;19.58;;;12.07;;
28627;SDS011;15815;46.760;19.604;2023-02-01T06:45:10;18.90;;;10.75;;
28627;SDS011;15815;46.760;19.604;2023-02-01T06:47:35;16.45;;;9.45;;
28627;SDS011;15815;46.760;19.604;2023-02-01T06:50:01;21.00;;;11.30;;
28627;SDS011;15815;46.760;19.604;2023-02-01T06:52:27;22.10;;;13.45;;
28627;SDS011;15815;46.760;19.604;2023-02-01T06:54:52;14.25;;;7.50;;
28627;SDS011;15815;46.760;19.604;2023-02-01T06:57:18;24.88;;;8.73;;
28627;SDS011;15815;46.760;19.604;2023-02-01T06:59:43;15.65;;;8.10;;
28627;SDS011;15815;46.760;19.604;2023-02-01T07:02:10;16.58;;;10.25;;
28627;SDS011;15815;46.760;19.604;2023-02-01T07:04:36;15.18;;;9.20;;
28627;SDS011;15815;46.760;19.604;2023-02-01T07:07:02;14.32;;;8.38;;
28627;SDS011;15815;46.760;19.604;2023-02-01T07:09:27;17.83;;;10.55;;
28627;SDS011;15815;46.760;19.604;2023-02-01T07:12:11;15.57;;;8.82;;
28627;SDS011;15815;46.760;19.604;2023-02-01T07:14:37;19.10;;;15.43;;
28627;SDS011;15815;46.760;19.604;2023-02-01T07:17:02;29.67;;;21.58;;
28627;SDS011;15815;46.760;19.604;2023-02-01T07:19:28;15.43;;;10.80;;
28627;SDS011;15815;46.760;19.604;2023-02-01T07:21:54;21.55;;;14.98;;
28627;SDS011;15815;46.760;19.604;2023-02-01T07:24:19;13.07;;;9.57;;
28627;SDS011;15815;46.760;19.604;2023-02-01T07:26:45;11.40;;;6.80;;
28627;SDS011;15815;46.760;19.604;2023-02-01T07:29:11;10.55;;;7.28;;
28627;SDS011;15815;46.760;19.604;2023-02-01T07:31:36;11.32;;;6.38;;
28627;SDS011;15815;46.760;19.604;2023-02-01T07:34:02;9.63;;;5.95;;
28627;SDS011;15815;46.760;19.604;2023-02-01T07:36:28;12.25;;;7.28;;
28627;SDS011;15815;46.760;19.604;2023-02-01T07:38:53;23.48;;;11.70;;
28627;SDS011;15815;46.760;19.604;2023-02-01T07:41:22;18.15;;;9.50;;
28627;SDS011;15815;46.760;19.604;2023-02-01T07:43:48;19.45;;;10.35;;
28627;SDS011;15815;46.760;19.604;2023-02-01T07:46:13;21.67;;;10.75;;
28627;SDS011;15815;46.760;19.604;2023-02-01T07:48:39;16.42;;;9.43;;
28627;SDS011;15815;46.760;19.604;2023-02-01T07:51:05;10.40;;;6.07;;
28627;SDS011;15815;46.760;19.604;2023-02-01T07:53:36;32.17;;;15.68;;
28627;SDS011;15815;46.760;19.604;2023-02-01T07:56:02;41.40;;;19.30;;
28627;SDS011;15815;46.760;19.604;2023-02-01T07:58:28;30.35;;;14.60;;
28627;SDS011;15815;46.760;19.604;2023-02-01T08:00:54;24.92;;;17.40;;
28627;SDS011;15815;46.760;19.604;2023-02-01T08:03:20;15.65;;;9.95;;
28627;SDS011;15815;46.760;19.604;2023-02-01T08:05:46;14.45;;;9.55;;
28627;SDS011;15815;46.760;19.604;2023-02-01T08:08:11;10.18;;;6.90;;
28627;SDS011;15815;46.760;19.604;2023-02-01T08:10:37;13.55;;;8.27;;
28627;SDS011;15815;46.760;19.604;2023-02-01T08:13:02;9.80;;;6.55;;
28627;SDS011;15815;46.760;19.604;2023-02-01T08:15:28;8.32;;;5.50;;
28627;SDS011;15815;46.760;19.604;2023-02-01T08:17:57;6.00;;;4.50;;
28627;SDS011;15815;46.760;19.604;2023-02-01T08:20:23;8.02;;;4.43;;
28627;SDS011;15815;46.760;19.604;2023-02-01T08:22:51;9.07;;;4.85;;
28627;SDS011;15815;46.760;19.604;2023-02-01T08:25:17;7.45;;;4.78;;
28627;SDS011;15815;46.760;19.604;2023-02-01T08:27:43;16.63;;;6.03;;
28627;SDS011;15815;46.760;19.604;2023-02-01T08:30:08;5.35;;;3.30;;
28627;SDS011;15815;46.760;19.604;2023-02-01T08:32:35;5.57;;;3.08;;
28627;SDS011;15815;46.760;19.604;2023-02-01T08:35:01;6.72;;;3.42;;
28627;SDS011;15815;46.760;19.604;2023-02-01T08:37:27;4.85;;;3.65;;
28627;SDS011;15815;46.760;19.604;2023-02-01T08:39:53;6.53;;;3.40;;
28627;SDS011;15815;46.760;19.604;2023-02-01T08:42:18;6.00;;;3.25;;
28627;SDS011;15815;46.760;19.604;2023-02-01T08:44:44;4.47;;;2.65;;
28627;SDS011;15815;46.760;19.604;2023-02-01T08:47:09;6.70;;;2.83;;
28627;SDS011;15815;46.760;19.604;2023-02-01T08:49:35;4.80;;;2.53;;
28627;SDS011;15815;46.760;19.604;2023-02-01T08:52:00;4.68;;;2.17;;
28627;SDS011;15815;46.760;19.604;2023-02-01T08:54:26;9.55;;;2.95;;
28627;SDS011;15815;46.760;19.604;2023-02-01T08:56:51;3.45;;;2.35;;
28627;SDS011;15815;46.760;19.604;2023-02-01T08:59:17;4.13;;;2.60;;
28627;SDS011;15815;46.760;19.604;2023-02-01T09:01:42;12.35;;;3.38;;
28627;SDS011;15815;46.760;19.604;2023-02-01T09:04:08;6.50;;;3.17;;
28627;SDS011;15815;46.760;19.604;2023-02-01T09:06:33;9.00;;;5.55;;
28627;SDS011;15815;46.760;19.604;2023-02-01T09:08:59;13.43;;;7.18;;
28627;SDS011;15815;46.760;19.604;2023-02-01T09:11:24;6.65;;;4.03;;
28627;SDS011;15815;46.760;19.604;2023-02-01T09:13:50;6.97;;;2.97;;
28627;SDS011;15815;46.760;19.604;2023-02-01T09:16:15;4.90;;;2.70;;
28627;SDS011;15815;46.760;19.604;2023-02-01T09:18:41;6.03;;;4.22;;
28627;SDS011;15815;46.760;19.604;2023-02-01T09:21:07;5.30;;;2.42;;
28627;SDS011;15815;46.760;19.604;2023-02-01T09:23:33;4.35;;;2.70;;
28627;SDS011;15815;46.760;19.604;2023-02-01T09:26:00;12.02;;;7.07;;
28627;SDS011;15815;46.760;19.604;2023-02-01T09:28:26;4.05;;;2.42;;
28627;SDS011;15815;46.760;19.604;2023-02-01T09:30:56;5.65;;;3.35;;
28627;SDS011;15815;46.760;19.604;2023-02-01T09:33:22;5.30;;;3.45;;
28627;SDS011;15815;46.760;19.604;2023-02-01T09:35:47;5.82;;;2.80;;
28627;SDS011;15815;46.760;19.604;2023-02-01T09:38:13;4.72;;;2.60;;
28627;SDS011;15815;46.760;19.604;2023-02-01T09:40:42;8.63;;;2.03;;
28627;SDS011;15815;46.760;19.604;2023-02-01T09:48:29;8.07;;;3.20;;
28627;SDS011;15815;46.760;19.604;2023-02-01T09:50:58;4.22;;;2.38;;
28627;SDS011;15815;46.760;19.604;2023-02-01T09:53:38;5.90;;;2.72;;
28627;SDS011;15815;46.760;19.604;2023-02-01T09:56:15;8.13;;;4.22;;
28627;SDS011;15815;46.760;19.604;2023-02-01T09:58:54;6.72;;;3.60;;
28627;SDS011;15815;46.760;19.604;2023-02-01T10:01:26;6.28;;;3.33;;
28627;SDS011;15815;46.760;19.604;2023-02-01T10:03:55;5.80;;;2.55;;
28627;SDS011;15815;46.760;19.604;2023-02-01T10:06:31;7.63;;;3.92;;
28627;SDS011;15815;46.760;19.604;2023-02-01T10:12:04;5.38;;;3.20;;
28627;SDS011;15815;46.760;19.604;2023-02-01T10:20:14;4.90;;;3.50;;
28627;SDS011;15815;46.760;19.604;2023-02-01T10:22:42;5.70;;;3.60;;
28627;SDS011;15815;46.760;19.604;2023-02-01T10:27:38;11.13;;;4.65;;
28627;SDS011;15815;46.760;19.604;2023-02-01T10:30:06;5.57;;;3.40;;
28627;SDS011;15815;46.760;19.604;2023-02-01T10:32:38;9.40;;;3.65;;
28627;SDS011;15815;46.760;19.604;2023-02-01T10:35:15;5.60;;;3.35;;
28627;SDS011;15815;46.760;19.604;2023-02-01T10:37:43;7.57;;;3.50;;
28627;SDS011;15815;46.760;19.604;2023-02-01T10:42:43;7.18;;;4.90;;
28627;SDS011;15815;46.760;19.604;2023-02-01T10:45:12;15.55;;;8.48;;
28627;SDS011;15815;46.760;19.604;2023-02-01T10:47:42;10.35;;;5.72;;
28627;SDS011;15815;46.760;19.604;2023-02-01T10:52:38;14.73;;;8.40;;
28627;SDS011;15815;46.760;19.604;2023-02-01T10:58:17;8.88;;;4.88;;
28627;SDS011;15815;46.760;19.604;2023-02-01T11:01:06;5.68;;;3.38;;
28627;SDS011;15815;46.760;19.604;2023-02-01T11:03:36;4.05;;;2.53;;
28627;SDS011;15815;46.760;19.604;2023-02-01T11:06:10;3.53;;;2.55;;
28627;SDS011;15815;46.760;19.604;2023-02-01T11:08:45;3.00;;;2.60;;
28627;SDS011;15815;46.760;19.604;2023-02-01T11:11:13;4.93;;;3.50;;
28627;SDS011;15815;46.760;19.604;2023-02-01T11:13:39;4.07;;;2.60;;
28627;SDS011;15815;46.760;19.604;2023-02-01T11:16:05;6.78;;;3.00;;
28627;SDS011;15815;46.760;19.604;2023-02-01T11:18:34;5.95;;;4.18;;
28627;SDS011;15815;46.760;19.604;2023-02-01T11:21:01;7.13;;;4.60;;
28627;SDS011;15815;46.760;19.604;2023-02-01T11:23:28;17.75;;;7.18;;
28627;SDS011;15815;46.760;19.604;2023-02-01T11:26:01;7.10;;;5.20;;
28627;SDS011;15815;46.760;19.604;2023-02-01T11:28:37;12.88;;;6.85;;
28627;SDS011;15815;46.760;19.604;2023-02-01T11:31:13;6.45;;;4.05;;
28627;SDS011;15815;46.760;19.604;2023-02-01T11:33:42;9.00;;;4.72;;
28627;SDS011;15815;46.760;19.604;2023-02-01T11:36:31;10.43;;;5.43;;
28627;SDS011;15815;46.760;19.604;2023-02-01T11:49:47;5.95;;;3.97;;
28627;SDS011;15815;46.760;19.604;2023-02-01T12:06:27;9.65;;;5.22;;
28627;SDS011;15815;46.760;19.604;2023-02-01T12:17:51;10.65;;;5.85;;
28627;SDS011;15815;46.760;19.604;2023-02-01T12:20:59;6.65;;;4.55;;
28627;SDS011;15815;46.760;19.604;2023-02-01T12:26:34;14.07;;;7.82;;
28627;SDS011;15815;46.760;19.604;2023-02-01T12:29:11;15.63;;;8.52;;
28627;SDS011;15815;46.760;19.604;2023-02-01T12:37:19;4.80;;;2.75;;
28627;SDS011;15815;46.760;19.604;2023-02-01T12:43:43;7.70;;;4.47;;
28627;SDS011;15815;46.760;19.604;2023-02-01T12:46:46;9.02;;;5.13;;
28627;SDS011;15815;46.760;19.604;2023-02-01T12:49:18;7.22;;;4.47;;
28627;SDS011;15815;46.760;19.604;2023-02-01T12:51:48;8.07;;;5.32;;
28627;SDS011;15815;46.760;19.604;2023-02-01T12:54:39;9.02;;;4.30;;
28627;SDS011;15815;46.760;19.604;2023-02-01T12:57:27;7.47;;;4.80;;
28627;SDS011;15815;46.760;19.604;2023-02-01T13:00:21;4.93;;;2.78;;
28627;SDS011;15815;46.760;19.604;2023-02-01T13:06:07;5.72;;;3.30;;
28627;SDS011;15815;46.760;19.604;2023-02-01T13:08:48;6.70;;;3.13;;
28627;SDS011;15815;46.760;19.604;2023-02-01T13:11:29;4.65;;;3.03;;
28627;SDS011;15815;46.760;19.604;2023-02-01T13:14:00;5.35;;;3.38;;
28627;SDS011;15815;46.760;19.604;2023-02-01T13:16:32;4.22;;;3.30;;
28627;SDS011;15815;46.760;19.604;2023-02-01T13:20:03;5.13;;;2.63;;
28627;SDS011;15815;46.760;19.604;2023-02-01T13:22:19;6.53;;;2.95;;
28627;SDS011;15815;46.760;19.604;2023-02-01T13:24:50;5.15;;;2.75;;
28627;SDS011;15815;46.760;19.604;2023-02-01T13:27:19;2.80;;;2.30;;
28627;SDS011;15815;46.760;19.604;2023-02-01T13:29:47;4.53;;;2.28;;
28627;SDS011;15815;46.760;19.604;2023-02-01T13:32:25;5.32;;;3.70;;
28627;SDS011;15815;46.760;19.604;2023-02-01T13:35:10;2.25;;;2.05;;
28627;SDS011;15815;46.760;19.604;2023-02-01T13:43:34;4.97;;;2.70;;
28627;SDS011;15815;46.760;19.604;2023-02-01T13:46:07;9.88;;;5.47;;
28627;SDS011;15815;46.760;19.604;2023-02-01T13:48:39;12.65;;;6.05;;
28627;SDS011;15815;46.760;19.604;2023-02-01T13:51:12;10.50;;;6.30;;
28627;SDS011;15815;46.760;19.604;2023-02-01T13:53:43;15.82;;;8.23;;
28627;SDS011;15815;46.760;19.604;2023-02-01T13:56:13;17.63;;;10.30;;
28627;SDS011;15815;46.760;19.604;2023-02-01T13:58:43;9.02;;;6.07;;
28627;SDS011;15815;46.760;19.604;2023-02-01T14:11:34;24.05;;;17.27;;
28627;SDS011;15815;46.760;19.604;2023-02-01T14:19:20;10.48;;;5.30;;
28627;SDS011;15815;46.760;19.604;2023-02-01T14:22:33;9.75;;;4.20;;
28627;SDS011;15815;46.760;19.604;2023-02-01T14:24:56;7.78;;;5.18;;
28627;SDS011;15815;46.760;19.604;2023-02-01T14:27:24;8.65;;;5.63;;
28627;SDS011;15815;46.760;19.604;2023-02-01T14:29:55;11.07;;;5.47;;
28627;SDS011;15815;46.760;19.604;2023-02-01T14:32:36;9.30;;;7.22;;
28627;SDS011;15815;46.760;19.604;2023-02-01T14:35:06;12.88;;;6.90;;
28627;SDS011;15815;46.760;19.604;2023-02-01T14:37:41;13.32;;;8.88;;
28627;SDS011;15815;46.760;19.604;2023-02-01T14:42:53;8.80;;;4.38;;
28627;SDS011;15815;46.760;19.604;2023-02-01T14:47:45;8.65;;;3.92;;
28627;SDS011;15815;46.760;19.604;2023-02-01T14:50:15;9.13;;;4.43;;
28627;SDS011;15815;46.760;19.604;2023-02-01T14:55:42;12.63;;;6.03;;
28627;SDS011;15815;46.760;19.604;2023-02-01T15:01:05;8.57;;;4.50;;
28627;SDS011;15815;46.760;19.604;2023-02-01T15:06:37;10.10;;;4.35;;
28627;SDS011;15815;46.760;19.604;2023-02-01T15:09:29;7.13;;;3.20;;
28627;SDS011;15815;46.760;19.604;2023-02-01T15:14:23;5.28;;;3.45;;
28627;SDS011;15815;46.760;19.604;2023-02-01T15:16:49;7.38;;;4.15;;
28627;SDS011;15815;46.760;19.604;2023-02-01T15:19:18;11.05;;;5.38;;
28627;SDS011;15815;46.760;19.604;2023-02-01T15:21:46;5.82;;;3.90;;
28627;SDS011;15815;46.760;19.604;2023-02-01T15:24:23;12.43;;;3.97;;
28627;SDS011;15815;46.760;19.604;2023-02-01T15:26:52;10.32;;;5.53;;
28627;SDS011;15815;46.760;19.604;2023-02-01T15:29:19;8.43;;;5.18;;
28627;SDS011;15815;46.760;19.604;2023-02-01T15:31:48;11.10;;;7.30;;
28627;SDS011;15815;46.760;19.604;2023-02-01T15:34:15;16.23;;;9.85;;
28627;SDS011;15815;46.760;19.604;2023-02-01T15:36:42;36.33;;;18.17;;
28627;SDS011;15815;46.760;19.604;2023-02-01T15:39:22;14.43;;;8.43;;
28627;SDS011;15815;46.760;19.604;2023-02-01T15:41:49;11.38;;;7.25;;
28627;SDS011;15815;46.760;19.604;2023-02-01T15:44:20;9.98;;;5.35;;
28627;SDS011;15815;46.760;19.604;2023-02-01T15:46:52;8.30;;;5.50;;
28627;SDS011;15815;46.760;19.604;2023-02-01T15:49:28;8.05;;;5.20;;
28627;SDS011;15815;46.760;19.604;2023-02-01T15:51:56;8.15;;;5.13;;
28627;SDS011;15815;46.760;19.604;2023-02-01T15:54:26;9.52;;;5.35;;
28627;SDS011;15815;46.760;19.604;2023-02-01T15:57:07;9.70;;;5.93;;
28627;SDS011;15815;46.760;19.604;2023-02-01T15:59:43;12.90;;;7.03;;
28627;SDS011;15815;46.760;19.604;2023-02-01T16:04:53;17.73;;;11.35;;
28627;SDS011;15815;46.760;19.604;2023-02-01T16:07:32;28.00;;;13.13;;
28627;SDS011;15815;46.760;19.604;2023-02-01T16:10:01;25.98;;;11.13;;
28627;SDS011;15815;46.760;19.604;2023-02-01T16:12:46;16.60;;;9.50;;
28627;SDS011;15815;46.760;19.604;2023-02-01T16:15:12;13.18;;;8.40;;
28627;SDS011;15815;46.760;19.604;2023-02-01T16:17:38;13.25;;;7.28;;
28627;SDS011;15815;46.760;19.604;2023-02-01T16:20:03;11.73;;;6.70;;
28627;SDS011;15815;46.760;19.604;2023-02-01T16:22:29;17.42;;;9.00;;
28627;SDS011;15815;46.760;19.604;2023-02-01T16:24:58;14.05;;;9.60;;
28627;SDS011;15815;46.760;19.604;2023-02-01T16:27:23;7.55;;;5.65;;
28627;SDS011;15815;46.760;19.604;2023-02-01T16:29:49;8.23;;;5.03;;
28627;SDS011;15815;46.760;19.604;2023-02-01T16:32:18;8.45;;;5.20;;
28627;SDS011;15815;46.760;19.604;2023-02-01T16:34:46;7.57;;;5.28;;
28627;SDS011;15815;46.760;19.604;2023-02-01T16:37:13;11.80;;;7.72;;
28627;SDS011;15815;46.760;19.604;2023-02-01T16:39:44;12.10;;;5.80;;
28627;SDS011;15815;46.760;19.604;2023-02-01T16:42:10;12.95;;;7.53;;
28627;SDS011;15815;46.760;19.604;2023-02-01T16:44:39;15.80;;;10.30;;
28627;SDS011;15815;46.760;19.604;2023-02-01T16:47:11;21.67;;;11.75;;
28627;SDS011;15815;46.760;19.604;2023-02-01T16:49:40;24.70;;;14.15;;
28627;SDS011;15815;46.760;19.604;2023-02-01T16:52:08;32.35;;;17.23;;
28627;SDS011;15815;46.760;19.604;2023-02-01T16:54:43;17.83;;;11.35;;
28627;SDS011;15815;46.760;19.604;2023-02-01T16:57:13;18.02;;;9.63;;
28627;SDS011;15815;46.760;19.604;2023-02-01T16:59:40;12.70;;;8.40;;
28627;SDS011;15815;46.760;19.604;2023-02-01T17:02:09;13.93;;;9.75;;
28627;SDS011;15815;46.760;19.604;2023-02-01T17:04:40;18.30;;;10.40;;
28627;SDS011;15815;46.760;19.604;2023-02-01T17:07:12;18.42;;;9.75;;
28627;SDS011;15815;46.760;19.604;2023-02-01T17:09:39;24.75;;;11.27;;
28627;SDS011;15815;46.760;19.604;2023-02-01T17:12:05;22.13;;;10.43;;
28627;SDS011;15815;46.760;19.604;2023-02-01T17:14:33;19.17;;;11.25;;
28627;SDS011;15815;46.760;19.604;2023-02-01T17:17:02;15.63;;;9.20;;
28627;SDS011;15815;46.760;19.604;2023-02-01T17:19:27;17.67;;;10.40;;